sensor_id;sensor_type;location;lat;lon;timestamp;P1;durP1;ratioP1;P2;durP2;ratioP2
10701;SDS011;5402;50.004;8.246;2023-06-14T00:01:48;4.88;;;3.90;;
10701;SDS011;5402;50.004;8.246;2023-06-14T00:04:14;4.45;;;4.05;;
10701;SDS011;5402;50.004;8.246;2023-06-14T00:06:43;5.13;;;4.38;;
10701;SDS011;5402;50.004;8.246;2023-06-14T00:09:10;7.15;;;4.60;;
10701;SDS011;5402;50.004;8.246;2023-06-14T00:11:38;4.28;;;3.83;;
10701;SDS011;5402;50.004;8.246;2023-06-14T00:14:05;6.10;;;4.28;;
10701;SDS011;5402;50.004;8.246;2023-06-14T00:16:33;7.28;;;4.20;;
10701;SDS011;5402;50.004;8.246;2023-06-14T00:19:00;6.17;;;4.13;;
10701;SDS011;5402;50.004;8.246;2023-06-14T00:21:28;5.55;;;4.55;;
10701;SDS011;5402;50.004;8.246;2023-06-14T00:23:55;4.93;;;4.20;;
10701;SDS011;5402;50.004;8.246;2023-06-14T00:26:21;4.30;;;3.90;;
10701;SDS011;5402;50.004;8.246;2023-06-14T00:28:48;4.60;;;4.00;;
10701;SDS011;5402;50.004;8.246;2023-06-14T00:31:15;4.87;;;4.03;;
10701;SDS011;5402;50.004;8.246;2023-06-14T00:33:43;5.80;;;3.93;;
10701;SDS011;5402;50.004;8.246;2023-06-14T00:36:10;4.65;;;3.72;;
10701;SDS011;5402;50.004;8.246;2023-06-14T00:38:37;5.43;;;4.00;;
10701;SDS011;5402;50.004;8.246;2023-06-14T00:41:03;5.97;;;3.70;;
10701;SDS011;5402;50.004;8.246;2023-06-14T00:43:30;4.90;;;4.50;;
10701;SDS011;5402;50.004;8.246;2023-06-14T00:45:57;4.90;;;3.90;;
10701;SDS011;5402;50.004;8.246;2023-06-14T00:48:24;4.00;;;3.60;;
10701;SDS011;5402;50.004;8.246;2023-06-14T00:50:52;4.95;;;4.15;;
10701;SDS011;5402;50.004;8.246;2023-06-14T00:53:20;6.88;;;4.20;;
10701;SDS011;5402;50.004;8.246;2023-06-14T00:55:48;4.53;;;3.83;;
10701;SDS011;5402;50.004;8.246;2023-06-14T00:58:14;4.18;;;3.78;;
10701;SDS011;5402;50.004;8.246;2023-06-14T01:00:41;5.40;;;4.10;;
10701;SDS011;5402;50.004;8.246;2023-06-14T01:03:09;5.13;;;3.58;;
10701;SDS011;5402;50.004;8.246;2023-06-14T01:05:38;4.50;;;3.67;;
10701;SDS011;5402;50.004;8.246;2023-06-14T01:08:18;5.83;;;4.00;;
10701;SDS011;5402;50.004;8.246;2023-06-14T01:10:52;5.07;;;3.95;;
10701;SDS011;5402;50.004;8.246;2023-06-14T01:13:27;6.22;;;3.90;;
10701;SDS011;5402;50.004;8.246;2023-06-14T01:15:57;5.38;;;3.95;;
10701;SDS011;5402;50.004;8.246;2023-06-14T01:18:26;4.10;;;3.50;;
10701;SDS011;5402;50.004;8.246;2023-06-14T01:20:55;4.28;;;3.83;;
10701;SDS011;5402;50.004;8.246;2023-06-14T01:23:23;4.77;;;3.50;;
10701;SDS011;5402;50.004;8.246;2023-06-14T01:25:50;5.63;;;3.60;;
10701;SDS011;5402;50.004;8.246;2023-06-14T01:28:19;4.93;;;3.50;;
10701;SDS011;5402;50.004;8.246;2023-06-14T01:30:47;4.13;;;3.53;;
10701;SDS011;5402;50.004;8.246;2023-06-14T01:33:17;3.65;;;3.35;;
10701;SDS011;5402;50.004;8.246;2023-06-14T01:35:46;4.20;;;3.60;;
10701;SDS011;5402;50.004;8.246;2023-06-14T01:38:14;4.03;;;3.63;;
10701;SDS011;5402;50.004;8.246;2023-06-14T01:40:44;5.13;;;3.70;;
10701;SDS011;5402;50.004;8.246;2023-06-14T01:43:12;4.33;;;3.93;;
10701;SDS011;5402;50.004;8.246;2023-06-14T01:45:40;4.10;;;3.70;;
10701;SDS011;5402;50.004;8.246;2023-06-14T01:48:07;4.77;;;4.00;;
10701;SDS011;5402;50.004;8.246;2023-06-14T01:50:34;4.35;;;3.65;;
10701;SDS011;5402;50.004;8.246;2023-06-14T01:53:01;4.83;;;3.70;;
10701;SDS011;5402;50.004;8.246;2023-06-14T01:55:28;4.13;;;3.60;;
10701;SDS011;5402;50.004;8.246;2023-06-14T01:58:00;5.67;;;3.40;;
10701;SDS011;5402;50.004;8.246;2023-06-14T02:00:26;3.85;;;3.42;;
10701;SDS011;5402;50.004;8.246;2023-06-14T02:02:53;5.60;;;3.90;;
10701;SDS011;5402;50.004;8.246;2023-06-14T02:05:20;6.00;;;4.17;;
10701;SDS011;5402;50.004;8.246;2023-06-14T02:07:47;6.03;;;3.70;;
10701;SDS011;5402;50.004;8.246;2023-06-14T02:10:14;4.10;;;3.70;;
10701;SDS011;5402;50.004;8.246;2023-06-14T02:12:42;5.30;;;3.47;;
10701;SDS011;5402;50.004;8.246;2023-06-14T02:15:11;4.80;;;3.43;;
10701;SDS011;5402;50.004;8.246;2023-06-14T02:17:41;4.20;;;3.80;;
10701;SDS011;5402;50.004;8.246;2023-06-14T02:20:08;4.77;;;3.80;;
10701;SDS011;5402;50.004;8.246;2023-06-14T02:22:36;5.27;;;3.80;;
10701;SDS011;5402;50.004;8.246;2023-06-14T02:25:03;3.90;;;3.50;;
10701;SDS011;5402;50.004;8.246;2023-06-14T02:27:30;4.93;;;3.67;;
10701;SDS011;5402;50.004;8.246;2023-06-14T02:29:57;5.37;;;3.77;;
10701;SDS011;5402;50.004;8.246;2023-06-14T02:32:25;5.38;;;3.53;;
10701;SDS011;5402;50.004;8.246;2023-06-14T02:34:52;3.72;;;3.42;;
10701;SDS011;5402;50.004;8.246;2023-06-14T02:37:19;4.57;;;3.60;;
10701;SDS011;5402;50.004;8.246;2023-06-14T02:39:46;3.87;;;3.10;;
10701;SDS011;5402;50.004;8.246;2023-06-14T02:42:14;4.00;;;3.60;;
10701;SDS011;5402;50.004;8.246;2023-06-14T02:44:41;5.65;;;3.42;;
10701;SDS011;5402;50.004;8.246;2023-06-14T02:47:08;5.20;;;3.67;;
10701;SDS011;5402;50.004;8.246;2023-06-14T02:49:36;5.70;;;3.63;;
10701;SDS011;5402;50.004;8.246;2023-06-14T02:52:03;4.97;;;3.97;;
10701;SDS011;5402;50.004;8.246;2023-06-14T02:54:31;3.77;;;3.37;;
10701;SDS011;5402;50.004;8.246;2023-06-14T02:56:58;5.23;;;3.47;;
10701;SDS011;5402;50.004;8.246;2023-06-14T02:59:24;4.33;;;3.37;;
10701;SDS011;5402;50.004;8.246;2023-06-14T03:01:51;4.77;;;3.20;;
10701;SDS011;5402;50.004;8.246;2023-06-14T03:04:18;4.10;;;3.70;;
10701;SDS011;5402;50.004;8.246;2023-06-14T03:06:46;4.43;;;3.80;;
10701;SDS011;5402;50.004;8.246;2023-06-14T03:09:15;4.07;;;3.67;;
10701;SDS011;5402;50.004;8.246;2023-06-14T03:11:42;5.33;;;3.90;;
10701;SDS011;5402;50.004;8.246;2023-06-14T03:14:09;5.20;;;3.27;;
10701;SDS011;5402;50.004;8.246;2023-06-14T03:16:36;4.70;;;3.60;;
10701;SDS011;5402;50.004;8.246;2023-06-14T03:19:03;4.10;;;3.40;;
10701;SDS011;5402;50.004;8.246;2023-06-14T03:21:30;5.17;;;3.30;;
10701;SDS011;5402;50.004;8.246;2023-06-14T03:23:58;5.47;;;3.53;;
10701;SDS011;5402;50.004;8.246;2023-06-14T03:26:25;6.93;;;3.80;;
10701;SDS011;5402;50.004;8.246;2023-06-14T03:28:52;5.23;;;3.40;;
10701;SDS011;5402;50.004;8.246;2023-06-14T03:31:19;5.13;;;3.90;;
10701;SDS011;5402;50.004;8.246;2023-06-14T03:33:46;4.70;;;3.80;;
10701;SDS011;5402;50.004;8.246;2023-06-14T03:36:13;4.83;;;3.77;;
10701;SDS011;5402;50.004;8.246;2023-06-14T03:38:40;4.53;;;3.13;;
10701;SDS011;5402;50.004;8.246;2023-06-14T03:41:07;4.07;;;3.03;;
10701;SDS011;5402;50.004;8.246;2023-06-14T03:43:34;5.53;;;3.27;;
10701;SDS011;5402;50.004;8.246;2023-06-14T03:46:01;7.43;;;4.00;;
10701;SDS011;5402;50.004;8.246;2023-06-14T03:48:28;3.90;;;3.47;;
10701;SDS011;5402;50.004;8.246;2023-06-14T03:50:54;4.77;;;3.60;;
10701;SDS011;5402;50.004;8.246;2023-06-14T03:53:21;7.93;;;3.20;;
10701;SDS011;5402;50.004;8.246;2023-06-14T03:55:49;5.07;;;3.70;;
10701;SDS011;5402;50.004;8.246;2023-06-14T03:58:18;4.70;;;3.50;;
10701;SDS011;5402;50.004;8.246;2023-06-14T04:00:45;5.47;;;3.70;;
10701;SDS011;5402;50.004;8.246;2023-06-14T04:03:12;5.83;;;3.43;;
10701;SDS011;5402;50.004;8.246;2023-06-14T04:05:40;4.87;;;3.73;;
10701;SDS011;5402;50.004;8.246;2023-06-14T04:08:08;6.57;;;3.83;;
10701;SDS011;5402;50.004;8.246;2023-06-14T04:10:35;7.50;;;3.67;;
10701;SDS011;5402;50.004;8.246;2023-06-14T04:13:02;5.47;;;3.60;;
10701;SDS011;5402;50.004;8.246;2023-06-14T04:15:31;8.77;;;4.13;;
10701;SDS011;5402;50.004;8.246;2023-06-14T04:18:06;5.34;;;3.91;;
10701;SDS011;5402;50.004;8.246;2023-06-14T04:20:32;3.83;;;3.40;;
10701;SDS011;5402;50.004;8.246;2023-06-14T04:23:10;6.27;;;3.90;;
10701;SDS011;5402;50.004;8.246;2023-06-14T04:25:38;9.57;;;4.00;;
10701;SDS011;5402;50.004;8.246;2023-06-14T04:28:05;6.20;;;3.90;;
10701;SDS011;5402;50.004;8.246;2023-06-14T04:30:35;5.43;;;3.80;;
10701;SDS011;5402;50.004;8.246;2023-06-14T04:33:03;7.37;;;3.90;;
10701;SDS011;5402;50.004;8.246;2023-06-14T04:35:30;6.00;;;3.80;;
10701;SDS011;5402;50.004;8.246;2023-06-14T04:37:57;6.13;;;3.50;;
10701;SDS011;5402;50.004;8.246;2023-06-14T04:40:24;4.97;;;3.50;;
10701;SDS011;5402;50.004;8.246;2023-06-14T04:42:51;5.30;;;3.92;;
10701;SDS011;5402;50.004;8.246;2023-06-14T04:45:18;9.75;;;3.60;;
10701;SDS011;5402;50.004;8.246;2023-06-14T04:47:46;5.53;;;4.23;;
10701;SDS011;5402;50.004;8.246;2023-06-14T04:50:12;4.27;;;3.70;;
10701;SDS011;5402;50.004;8.246;2023-06-14T04:52:39;6.60;;;3.70;;
10701;SDS011;5402;50.004;8.246;2023-06-14T04:55:07;5.23;;;3.50;;
10701;SDS011;5402;50.004;8.246;2023-06-14T04:57:35;5.23;;;4.03;;
10701;SDS011;5402;50.004;8.246;2023-06-14T05:00:04;4.87;;;3.67;;
10701;SDS011;5402;50.004;8.246;2023-06-14T05:02:31;4.23;;;3.57;;
10701;SDS011;5402;50.004;8.246;2023-06-14T05:05:00;4.17;;;3.50;;
10701;SDS011;5402;50.004;8.246;2023-06-14T05:07:26;5.65;;;3.40;;
10701;SDS011;5402;50.004;8.246;2023-06-14T05:09:53;4.97;;;3.53;;
10701;SDS011;5402;50.004;8.246;2023-06-14T05:12:20;5.65;;;3.88;;
10701;SDS011;5402;50.004;8.246;2023-06-14T05:14:48;8.17;;;3.57;;
10701;SDS011;5402;50.004;8.246;2023-06-14T05:17:15;9.35;;;3.97;;
10701;SDS011;5402;50.004;8.246;2023-06-14T05:19:42;5.67;;;3.43;;
10701;SDS011;5402;50.004;8.246;2023-06-14T05:22:10;5.53;;;3.50;;
10701;SDS011;5402;50.004;8.246;2023-06-14T05:24:40;7.45;;;4.72;;
10701;SDS011;5402;50.004;8.246;2023-06-14T05:27:07;6.47;;;3.90;;
10701;SDS011;5402;50.004;8.246;2023-06-14T05:29:34;7.38;;;3.90;;
10701;SDS011;5402;50.004;8.246;2023-06-14T05:32:01;6.72;;;3.55;;
10701;SDS011;5402;50.004;8.246;2023-06-14T05:34:28;7.28;;;3.25;;
10701;SDS011;5402;50.004;8.246;2023-06-14T05:36:55;3.97;;;3.30;;
10701;SDS011;5402;50.004;8.246;2023-06-14T05:39:23;5.75;;;3.70;;
10701;SDS011;5402;50.004;8.246;2023-06-14T05:41:50;4.47;;;3.40;;
10701;SDS011;5402;50.004;8.246;2023-06-14T05:44:16;5.60;;;3.53;;
10701;SDS011;5402;50.004;8.246;2023-06-14T05:46:43;3.90;;;3.50;;
10701;SDS011;5402;50.004;8.246;2023-06-14T05:49:10;3.80;;;3.30;;
10701;SDS011;5402;50.004;8.246;2023-06-14T05:51:37;4.53;;;3.50;;
10701;SDS011;5402;50.004;8.246;2023-06-14T05:54:03;3.33;;;3.00;;
10701;SDS011;5402;50.004;8.246;2023-06-14T05:56:31;7.13;;;3.55;;
10701;SDS011;5402;50.004;8.246;2023-06-14T05:58:58;3.17;;;2.90;;
10701;SDS011;5402;50.004;8.246;2023-06-14T06:01:25;4.93;;;3.33;;
10701;SDS011;5402;50.004;8.246;2023-06-14T06:03:52;5.83;;;3.00;;
10701;SDS011;5402;50.004;8.246;2023-06-14T06:06:19;3.20;;;2.90;;
10701;SDS011;5402;50.004;8.246;2023-06-14T06:08:46;4.30;;;3.63;;
10701;SDS011;5402;50.004;8.246;2023-06-14T06:11:13;5.77;;;3.27;;
10701;SDS011;5402;50.004;8.246;2023-06-14T06:13:41;3.77;;;2.97;;
10701;SDS011;5402;50.004;8.246;2023-06-14T06:16:08;3.83;;;3.07;;
10701;SDS011;5402;50.004;8.246;2023-06-14T06:18:35;3.25;;;2.63;;
10701;SDS011;5402;50.004;8.246;2023-06-14T06:21:02;3.67;;;3.00;;
10701;SDS011;5402;50.004;8.246;2023-06-14T06:23:30;4.38;;;3.15;;
10701;SDS011;5402;50.004;8.246;2023-06-14T06:25:57;5.23;;;2.97;;
10701;SDS011;5402;50.004;8.246;2023-06-14T06:28:24;4.07;;;3.30;;
10701;SDS011;5402;50.004;8.246;2023-06-14T06:30:52;8.40;;;3.22;;
10701;SDS011;5402;50.004;8.246;2023-06-14T06:33:18;5.13;;;3.53;;
10701;SDS011;5402;50.004;8.246;2023-06-14T06:35:45;3.65;;;3.05;;
10701;SDS011;5402;50.004;8.246;2023-06-14T06:38:12;5.97;;;3.17;;
10701;SDS011;5402;50.004;8.246;2023-06-14T06:40:38;6.33;;;3.10;;
10701;SDS011;5402;50.004;8.246;2023-06-14T06:43:05;4.07;;;3.30;;
10701;SDS011;5402;50.004;8.246;2023-06-14T06:45:32;6.22;;;3.60;;
10701;SDS011;5402;50.004;8.246;2023-06-14T06:48:00;5.95;;;3.38;;
10701;SDS011;5402;50.004;8.246;2023-06-14T06:50:26;4.23;;;3.23;;
10701;SDS011;5402;50.004;8.246;2023-06-14T06:52:53;5.43;;;3.40;;
10701;SDS011;5402;50.004;8.246;2023-06-14T06:55:20;4.17;;;3.40;;
10701;SDS011;5402;50.004;8.246;2023-06-14T06:57:46;5.27;;;3.23;;
10701;SDS011;5402;50.004;8.246;2023-06-14T07:00:15;3.53;;;3.20;;
10701;SDS011;5402;50.004;8.246;2023-06-14T07:02:44;7.53;;;3.83;;
10701;SDS011;5402;50.004;8.246;2023-06-14T07:05:12;5.03;;;3.20;;
10701;SDS011;5402;50.004;8.246;2023-06-14T07:07:39;5.03;;;3.27;;
10701;SDS011;5402;50.004;8.246;2023-06-14T07:10:06;3.93;;;2.97;;
10701;SDS011;5402;50.004;8.246;2023-06-14T07:12:34;5.97;;;2.57;;
10701;SDS011;5402;50.004;8.246;2023-06-14T07:15:04;5.47;;;3.03;;
10701;SDS011;5402;50.004;8.246;2023-06-14T07:17:32;3.43;;;2.90;;
10701;SDS011;5402;50.004;8.246;2023-06-14T07:19:59;5.20;;;3.00;;
10701;SDS011;5402;50.004;8.246;2023-06-14T07:22:27;6.40;;;3.13;;
10701;SDS011;5402;50.004;8.246;2023-06-14T07:24:54;4.90;;;2.92;;
10701;SDS011;5402;50.004;8.246;2023-06-14T07:27:20;3.87;;;3.00;;
10701;SDS011;5402;50.004;8.246;2023-06-14T07:29:47;5.13;;;2.90;;
10701;SDS011;5402;50.004;8.246;2023-06-14T07:32:14;6.57;;;3.07;;
10701;SDS011;5402;50.004;8.246;2023-06-14T07:34:40;3.97;;;2.70;;
10701;SDS011;5402;50.004;8.246;2023-06-14T07:37:07;6.13;;;2.50;;
10701;SDS011;5402;50.004;8.246;2023-06-14T07:39:37;4.33;;;2.57;;
10701;SDS011;5402;50.004;8.246;2023-06-14T07:42:04;3.20;;;2.60;;
10701;SDS011;5402;50.004;8.246;2023-06-14T07:44:31;5.03;;;2.70;;
10701;SDS011;5402;50.004;8.246;2023-06-14T07:46:58;3.87;;;2.50;;
10701;SDS011;5402;50.004;8.246;2023-06-14T07:49:25;3.73;;;2.57;;
10701;SDS011;5402;50.004;8.246;2023-06-14T07:51:52;4.57;;;2.60;;
10701;SDS011;5402;50.004;8.246;2023-06-14T07:54:20;3.70;;;2.47;;
10701;SDS011;5402;50.004;8.246;2023-06-14T07:56:51;3.10;;;2.80;;
10701;SDS011;5402;50.004;8.246;2023-06-14T07:59:18;2.97;;;2.53;;
10701;SDS011;5402;50.004;8.246;2023-06-14T08:01:45;3.83;;;2.40;;
10701;SDS011;5402;50.004;8.246;2023-06-14T08:04:13;3.67;;;2.57;;
10701;SDS011;5402;50.004;8.246;2023-06-14T08:06:40;3.03;;;2.40;;
10701;SDS011;5402;50.004;8.246;2023-06-14T08:09:09;3.93;;;2.63;;
10701;SDS011;5402;50.004;8.246;2023-06-14T08:11:35;3.60;;;2.60;;
10701;SDS011;5402;50.004;8.246;2023-06-14T08:14:03;3.25;;;2.50;;
10701;SDS011;5402;50.004;8.246;2023-06-14T08:16:30;3.63;;;2.40;;
10701;SDS011;5402;50.004;8.246;2023-06-14T08:18:57;3.47;;;2.30;;
10701;SDS011;5402;50.004;8.246;2023-06-14T08:21:24;3.92;;;2.50;;
10701;SDS011;5402;50.004;8.246;2023-06-14T08:23:54;2.63;;;2.42;;
10701;SDS011;5402;50.004;8.246;2023-06-14T08:26:21;13.50;;;3.65;;
10701;SDS011;5402;50.004;8.246;2023-06-14T08:28:47;7.25;;;2.72;;
10701;SDS011;5402;50.004;8.246;2023-06-14T08:31:15;3.17;;;2.10;;
10701;SDS011;5402;50.004;8.246;2023-06-14T08:33:42;5.88;;;2.60;;
10701;SDS011;5402;50.004;8.246;2023-06-14T08:36:09;5.47;;;2.83;;
10701;SDS011;5402;50.004;8.246;2023-06-14T08:38:37;3.38;;;2.33;;
10701;SDS011;5402;50.004;8.246;2023-06-14T08:41:04;5.47;;;2.10;;
10701;SDS011;5402;50.004;8.246;2023-06-14T08:43:31;5.97;;;2.25;;
10701;SDS011;5402;50.004;8.246;2023-06-14T08:46:00;15.02;;;5.95;;
10701;SDS011;5402;50.004;8.246;2023-06-14T08:48:30;3.28;;;2.80;;
10701;SDS011;5402;50.004;8.246;2023-06-14T08:50:59;2.70;;;2.03;;
10701;SDS011;5402;50.004;8.246;2023-06-14T08:53:29;4.57;;;2.75;;
10701;SDS011;5402;50.004;8.246;2023-06-14T08:55:58;4.13;;;2.47;;
10701;SDS011;5402;50.004;8.246;2023-06-14T08:58:26;2.88;;;2.47;;
10701;SDS011;5402;50.004;8.246;2023-06-14T09:00:56;3.35;;;2.20;;
10701;SDS011;5402;50.004;8.246;2023-06-14T09:03:23;4.15;;;2.75;;
10701;SDS011;5402;50.004;8.246;2023-06-14T09:05:56;4.20;;;2.40;;
10701;SDS011;5402;50.004;8.246;2023-06-14T09:08:24;6.97;;;3.78;;
10701;SDS011;5402;50.004;8.246;2023-06-14T09:10:51;1.85;;;1.70;;
10701;SDS011;5402;50.004;8.246;2023-06-14T09:13:18;5.97;;;2.00;;
10701;SDS011;5402;50.004;8.246;2023-06-14T09:15:45;4.90;;;2.55;;
10701;SDS011;5402;50.004;8.246;2023-06-14T09:18:12;3.38;;;1.80;;
10701;SDS011;5402;50.004;8.246;2023-06-14T09:20:38;3.47;;;2.15;;
10701;SDS011;5402;50.004;8.246;2023-06-14T09:23:08;2.00;;;1.80;;
10701;SDS011;5402;50.004;8.246;2023-06-14T09:25:41;2.70;;;2.05;;
10701;SDS011;5402;50.004;8.246;2023-06-14T09:28:09;2.90;;;2.28;;
10701;SDS011;5402;50.004;8.246;2023-06-14T09:30:36;2.85;;;1.98;;
10701;SDS011;5402;50.004;8.246;2023-06-14T09:33:03;3.05;;;1.90;;
10701;SDS011;5402;50.004;8.246;2023-06-14T09:35:30;3.20;;;2.20;;
10701;SDS011;5402;50.004;8.246;2023-06-14T09:37:57;4.85;;;2.15;;
10701;SDS011;5402;50.004;8.246;2023-06-14T09:40:27;5.25;;;2.10;;
10701;SDS011;5402;50.004;8.246;2023-06-14T09:42:54;8.43;;;2.53;;
10701;SDS011;5402;50.004;8.246;2023-06-14T09:45:22;25.17;;;3.95;;
10701;SDS011;5402;50.004;8.246;2023-06-14T09:47:50;11.05;;;2.55;;
10701;SDS011;5402;50.004;8.246;2023-06-14T09:50:16;8.73;;;2.55;;
10701;SDS011;5402;50.004;8.246;2023-06-14T09:52:44;2.67;;;1.92;;
10701;SDS011;5402;50.004;8.246;2023-06-14T09:55:18;9.63;;;2.30;;
10701;SDS011;5402;50.004;8.246;2023-06-14T09:57:48;15.35;;;3.25;;
10701;SDS011;5402;50.004;8.246;2023-06-14T10:00:18;4.03;;;2.03;;
10701;SDS011;5402;50.004;8.246;2023-06-14T10:02:47;3.35;;;1.90;;
10701;SDS011;5402;50.004;8.246;2023-06-14T10:05:21;15.05;;;2.63;;
10701;SDS011;5402;50.004;8.246;2023-06-14T10:07:51;2.20;;;2.00;;
10701;SDS011;5402;50.004;8.246;2023-06-14T10:10:21;6.55;;;2.25;;
10701;SDS011;5402;50.004;8.246;2023-06-14T10:12:49;4.65;;;2.10;;
10701;SDS011;5402;50.004;8.246;2023-06-14T10:15:30;2.15;;;1.77;;
10701;SDS011;5402;50.004;8.246;2023-06-14T10:18:06;4.78;;;2.00;;
10701;SDS011;5402;50.004;8.246;2023-06-14T10:20:42;3.75;;;1.90;;
10701;SDS011;5402;50.004;8.246;2023-06-14T10:23:16;2.55;;;1.83;;
10701;SDS011;5402;50.004;8.246;2023-06-14T10:25:49;2.20;;;1.95;;
10701;SDS011;5402;50.004;8.246;2023-06-14T10:28:18;2.97;;;2.08;;
10701;SDS011;5402;50.004;8.246;2023-06-14T10:31:03;2.28;;;1.77;;
10701;SDS011;5402;50.004;8.246;2023-06-14T10:33:31;1.92;;;1.73;;
10701;SDS011;5402;50.004;8.246;2023-06-14T10:36:08;2.17;;;1.63;;
10701;SDS011;5402;50.004;8.246;2023-06-14T10:38:56;2.55;;;2.30;;
10701;SDS011;5402;50.004;8.246;2023-06-14T10:41:24;2.53;;;1.63;;
10701;SDS011;5402;50.004;8.246;2023-06-14T10:44:07;2.08;;;1.90;;
10701;SDS011;5402;50.004;8.246;2023-06-14T10:46:52;3.25;;;2.03;;
10701;SDS011;5402;50.004;8.246;2023-06-14T10:49:19;1.98;;;1.77;;
10701;SDS011;5402;50.004;8.246;2023-06-14T10:51:49;4.82;;;1.70;;
10701;SDS011;5402;50.004;8.246;2023-06-14T10:54:17;3.00;;;1.80;;
10701;SDS011;5402;50.004;8.246;2023-06-14T10:56:47;2.20;;;1.70;;
10701;SDS011;5402;50.004;8.246;2023-06-14T10:59:16;2.00;;;1.58;;
10701;SDS011;5402;50.004;8.246;2023-06-14T11:01:47;2.53;;;1.98;;
10701;SDS011;5402;50.004;8.246;2023-06-14T11:04:23;1.92;;;1.75;;
10701;SDS011;5402;50.004;8.246;2023-06-14T11:07:03;2.63;;;1.80;;
10701;SDS011;5402;50.004;8.246;2023-06-14T11:12:35;1.98;;;1.80;;
10701;SDS011;5402;50.004;8.246;2023-06-14T11:15:09;3.75;;;2.03;;
10701;SDS011;5402;50.004;8.246;2023-06-14T11:17:36;1.92;;;1.67;;
10701;SDS011;5402;50.004;8.246;2023-06-14T11:20:09;3.85;;;1.73;;
10701;SDS011;5402;50.004;8.246;2023-06-14T11:22:41;2.72;;;1.80;;
10701;SDS011;5402;50.004;8.246;2023-06-14T11:25:08;3.63;;;2.13;;
10701;SDS011;5402;50.004;8.246;2023-06-14T11:27:35;2.70;;;1.95;;
10701;SDS011;5402;50.004;8.246;2023-06-14T11:30:02;2.00;;;1.80;;
10701;SDS011;5402;50.004;8.246;2023-06-14T11:32:32;3.05;;;2.00;;
10701;SDS011;5402;50.004;8.246;2023-06-14T11:34:59;3.22;;;2.03;;
10701;SDS011;5402;50.004;8.246;2023-06-14T11:37:26;2.35;;;2.00;;
10701;SDS011;5402;50.004;8.246;2023-06-14T11:39:55;1.83;;;1.73;;
10701;SDS011;5402;50.004;8.246;2023-06-14T11:42:23;2.08;;;1.80;;
10701;SDS011;5402;50.004;8.246;2023-06-14T11:44:52;2.55;;;1.90;;
10701;SDS011;5402;50.004;8.246;2023-06-14T11:47:20;2.58;;;2.30;;
10701;SDS011;5402;50.004;8.246;2023-06-14T11:49:48;2.22;;;2.03;;
10701;SDS011;5402;50.004;8.246;2023-06-14T11:52:15;4.07;;;1.90;;
10701;SDS011;5402;50.004;8.246;2023-06-14T11:54:42;2.53;;;1.83;;
10701;SDS011;5402;50.004;8.246;2023-06-14T11:57:09;2.33;;;2.05;;
10701;SDS011;5402;50.004;8.246;2023-06-14T11:59:40;4.45;;;2.10;;
10701;SDS011;5402;50.004;8.246;2023-06-14T12:02:09;2.25;;;2.00;;
10701;SDS011;5402;50.004;8.246;2023-06-14T12:04:36;1.88;;;1.77;;
10701;SDS011;5402;50.004;8.246;2023-06-14T12:07:10;3.45;;;2.55;;
10701;SDS011;5402;50.004;8.246;2023-06-14T12:09:40;2.20;;;1.98;;
10701;SDS011;5402;50.004;8.246;2023-06-14T12:12:09;2.78;;;2.25;;
10701;SDS011;5402;50.004;8.246;2023-06-14T12:14:36;3.08;;;2.28;;
10701;SDS011;5402;50.004;8.246;2023-06-14T12:17:06;3.58;;;2.17;;
10701;SDS011;5402;50.004;8.246;2023-06-14T12:19:33;3.13;;;2.00;;
10701;SDS011;5402;50.004;8.246;2023-06-14T12:22:10;2.08;;;1.90;;
10701;SDS011;5402;50.004;8.246;2023-06-14T12:24:37;3.17;;;2.33;;
10701;SDS011;5402;50.004;8.246;2023-06-14T12:27:04;3.55;;;2.40;;
10701;SDS011;5402;50.004;8.246;2023-06-14T12:29:32;4.80;;;2.67;;
10701;SDS011;5402;50.004;8.246;2023-06-14T12:31:58;3.85;;;2.45;;
10701;SDS011;5402;50.004;8.246;2023-06-14T12:34:25;2.53;;;2.33;;
10701;SDS011;5402;50.004;8.246;2023-06-14T12:36:52;2.92;;;2.33;;
10701;SDS011;5402;50.004;8.246;2023-06-14T12:39:21;2.28;;;2.08;;
10701;SDS011;5402;50.004;8.246;2023-06-14T12:41:49;3.28;;;2.45;;
10701;SDS011;5402;50.004;8.246;2023-06-14T12:44:16;2.80;;;2.50;;
10701;SDS011;5402;50.004;8.246;2023-06-14T12:46:43;5.82;;;2.50;;
10701;SDS011;5402;50.004;8.246;2023-06-14T12:49:10;5.82;;;2.70;;
10701;SDS011;5402;50.004;8.246;2023-06-14T12:51:37;2.47;;;2.15;;
10701;SDS011;5402;50.004;8.246;2023-06-14T12:54:04;2.85;;;2.50;;
10701;SDS011;5402;50.004;8.246;2023-06-14T12:56:32;2.65;;;2.30;;
10701;SDS011;5402;50.004;8.246;2023-06-14T12:58:59;4.97;;;2.42;;
10701;SDS011;5402;50.004;8.246;2023-06-14T13:01:27;3.38;;;2.65;;
10701;SDS011;5402;50.004;8.246;2023-06-14T13:03:54;4.05;;;2.53;;
10701;SDS011;5402;50.004;8.246;2023-06-14T13:06:20;3.88;;;2.38;;
10701;SDS011;5402;50.004;8.246;2023-06-14T13:08:47;5.38;;;2.35;;
10701;SDS011;5402;50.004;8.246;2023-06-14T13:11:15;3.75;;;2.58;;
10701;SDS011;5402;50.004;8.246;2023-06-14T13:13:43;2.53;;;2.17;;
10701;SDS011;5402;50.004;8.246;2023-06-14T13:16:10;2.55;;;2.20;;
10701;SDS011;5402;50.004;8.246;2023-06-14T13:18:39;2.38;;;2.17;;
10701;SDS011;5402;50.004;8.246;2023-06-14T13:21:06;4.70;;;2.35;;
10701;SDS011;5402;50.004;8.246;2023-06-14T13:23:32;2.83;;;2.22;;
10701;SDS011;5402;50.004;8.246;2023-06-14T13:25:59;4.22;;;2.28;;
10701;SDS011;5402;50.004;8.246;2023-06-14T13:28:26;2.83;;;2.08;;
10701;SDS011;5402;50.004;8.246;2023-06-14T13:30:54;2.85;;;2.20;;
10701;SDS011;5402;50.004;8.246;2023-06-14T13:33:20;3.70;;;2.35;;
10701;SDS011;5402;50.004;8.246;2023-06-14T13:35:49;2.80;;;2.60;;
10701;SDS011;5402;50.004;8.246;2023-06-14T13:38:17;3.40;;;2.67;;
10701;SDS011;5402;50.004;8.246;2023-06-14T13:40:44;3.80;;;2.40;;
10701;SDS011;5402;50.004;8.246;2023-06-14T13:43:11;3.33;;;2.40;;
10701;SDS011;5402;50.004;8.246;2023-06-14T13:45:38;3.42;;;2.28;;
10701;SDS011;5402;50.004;8.246;2023-06-14T13:48:06;2.67;;;2.47;;
10701;SDS011;5402;50.004;8.246;2023-06-14T13:50:33;2.83;;;2.35;;
10701;SDS011;5402;50.004;8.246;2023-06-14T13:53:00;2.50;;;2.30;;
10701;SDS011;5402;50.004;8.246;2023-06-14T13:55:27;3.47;;;2.47;;
10701;SDS011;5402;50.004;8.246;2023-06-14T13:57:53;4.03;;;2.60;;
10701;SDS011;5402;50.004;8.246;2023-06-14T14:00:21;2.90;;;2.70;;
10701;SDS011;5402;50.004;8.246;2023-06-14T14:02:48;3.25;;;2.60;;
10701;SDS011;5402;50.004;8.246;2023-06-14T14:05:17;3.17;;;2.30;;
10701;SDS011;5402;50.004;8.246;2023-06-14T14:07:45;3.00;;;2.58;;
10701;SDS011;5402;50.004;8.246;2023-06-14T14:10:12;3.00;;;2.70;;
10701;SDS011;5402;50.004;8.246;2023-06-14T14:12:39;3.40;;;2.72;;
10701;SDS011;5402;50.004;8.246;2023-06-14T14:15:06;4.00;;;2.60;;
10701;SDS011;5402;50.004;8.246;2023-06-14T14:17:37;3.65;;;2.70;;
10701;SDS011;5402;50.004;8.246;2023-06-14T14:20:04;2.97;;;2.70;;
10701;SDS011;5402;50.004;8.246;2023-06-14T14:22:33;3.33;;;2.53;;
10701;SDS011;5402;50.004;8.246;2023-06-14T14:25:00;2.70;;;2.50;;
10701;SDS011;5402;50.004;8.246;2023-06-14T14:27:29;4.78;;;2.67;;
10701;SDS011;5402;50.004;8.246;2023-06-14T14:29:56;4.30;;;2.80;;
10701;SDS011;5402;50.004;8.246;2023-06-14T14:32:23;5.43;;;2.95;;
10701;SDS011;5402;50.004;8.246;2023-06-14T14:34:50;2.72;;;2.20;;
10701;SDS011;5402;50.004;8.246;2023-06-14T14:37:16;4.20;;;2.60;;
10701;SDS011;5402;50.004;8.246;2023-06-14T14:39:45;2.95;;;2.65;;
10701;SDS011;5402;50.004;8.246;2023-06-14T14:42:12;3.85;;;2.38;;
10701;SDS011;5402;50.004;8.246;2023-06-14T14:44:39;3.08;;;2.78;;
10701;SDS011;5402;50.004;8.246;2023-06-14T14:47:06;4.18;;;2.47;;
10701;SDS011;5402;50.004;8.246;2023-06-14T14:49:33;4.15;;;2.50;;
10701;SDS011;5402;50.004;8.246;2023-06-14T14:52:00;3.75;;;3.22;;
10701;SDS011;5402;50.004;8.246;2023-06-14T14:54:27;4.53;;;2.40;;
10701;SDS011;5402;50.004;8.246;2023-06-14T14:56:56;3.88;;;2.60;;
10701;SDS011;5402;50.004;8.246;2023-06-14T14:59:23;2.65;;;2.45;;
10701;SDS011;5402;50.004;8.246;2023-06-14T15:01:49;5.90;;;2.90;;
10701;SDS011;5402;50.004;8.246;2023-06-14T15:04:17;3.83;;;2.75;;
10701;SDS011;5402;50.004;8.246;2023-06-14T15:06:45;2.60;;;2.38;;
10701;SDS011;5402;50.004;8.246;2023-06-14T15:09:11;4.35;;;2.90;;